createdAt,value
2018-07-12T00:01:16.730Z,101102.52
2018-07-12T00:03:43.938Z,101102.83
2018-07-12T00:06:11.120Z,101103.34
2018-07-12T00:08:38.343Z,101104.36
2018-07-12T00:11:05.535Z,101102.38
2018-07-12T00:13:32.732Z,101102.27
2018-07-12T00:15:59.943Z,101099.14
2018-07-12T00:18:27.154Z,101104.32
2018-07-12T00:20:54.363Z,101100.84
2018-07-12T00:23:21.576Z,101100.13
2018-07-12T00:25:48.789Z,101103.95
2018-07-12T00:28:16.003Z,101100.93
2018-07-12T00:30:43.230Z,101095.92
2018-07-12T00:33:10.437Z,101099.23
2018-07-12T00:35:37.636Z,101098.22
2018-07-12T00:38:04.817Z,101096.06
2018-07-12T00:40:32.031Z,101096.89
2018-07-12T00:42:59.256Z,101093.41
2018-07-12T00:45:26.446Z,101095.25
2018-07-12T00:47:53.671Z,101094.03
2018-07-12T00:50:20.849Z,101093.20
2018-07-12T00:52:48.069Z,101088.59
2018-07-12T00:55:15.261Z,101090.91
2018-07-12T00:57:42.481Z,101088.95
2018-07-12T01:00:09.672Z,101099.45
2018-07-12T01:02:36.887Z,101096.96
2018-07-12T01:05:04.098Z,101101.80
2018-07-12T01:07:31.337Z,101101.09
2018-07-12T01:09:58.562Z,101095.61
2018-07-12T01:12:25.757Z,101096.43
2018-07-12T01:14:52.976Z,101092.13
2018-07-12T01:17:20.183Z,101091.47
2018-07-12T01:19:47.393Z,101090.81
2018-07-12T01:22:14.577Z,101088.98
2018-07-12T01:24:41.781Z,101093.82
2018-07-12T01:27:08.972Z,101094.95
2018-07-12T01:29:36.169Z,101088.81
2018-07-12T01:32:03.367Z,101096.28
2018-07-12T01:34:30.579Z,101089.32
2018-07-12T01:36:57.784Z,101087.65
2018-07-12T01:39:25.010Z,101082.20
2018-07-12T01:41:52.664Z,101082.38
2018-07-12T01:44:19.865Z,101087.08
2018-07-12T01:46:47.103Z,101092.56
2018-07-12T01:49:14.296Z,101093.27
2018-07-12T01:51:41.489Z,101086.78
2018-07-12T01:54:08.690Z,101092.61
2018-07-12T01:56:35.941Z,101092.15
2018-07-12T01:59:03.160Z,101090.67
2018-07-12T02:01:30.377Z,101084.84
2018-07-12T02:03:57.585Z,101086.99
2018-07-12T02:06:24.835Z,101085.55
2018-07-12T02:08:52.055Z,101080.73
2018-07-12T02:11:19.275Z,101084.07
2018-07-12T02:13:46.482Z,101086.73
2018-07-12T02:16:13.702Z,101082.43
2018-07-12T02:18:40.927Z,101088.57
2018-07-12T02:21:08.125Z,101087.75
2018-07-12T02:23:35.349Z,101085.25
2018-07-12T02:26:02.563Z,101080.95
2018-07-12T02:28:29.817Z,101086.63
2018-07-12T02:30:57.021Z,101084.81
2018-07-12T02:33:24.239Z,101087.17
2018-07-12T02:35:51.441Z,101084.39
2018-07-12T02:38:18.653Z,101087.41
2018-07-12T02:40:45.890Z,101079.09
2018-07-12T02:43:13.092Z,101077.48
2018-07-12T02:45:40.299Z,101065.69
2018-07-12T02:48:07.524Z,101067.72
2018-07-12T02:50:34.741Z,101067.25
2018-07-12T02:53:01.926Z,101068.28
2018-07-12T02:55:29.148Z,101062.19
2018-07-12T02:57:56.428Z,101071.53
2018-07-12T03:00:23.605Z,101073.88
2018-07-12T03:02:50.809Z,101070.95
2018-07-12T03:05:17.990Z,101068.49
2018-07-12T03:07:45.188Z,101067.20
2018-07-12T03:10:12.367Z,101073.70
2018-07-12T03:12:39.570Z,101072.56
2018-07-12T03:15:06.768Z,101077.37
2018-07-12T03:17:33.978Z,101077.02
2018-07-12T03:20:01.180Z,101075.88
2018-07-12T03:22:28.423Z,101071.73
2018-07-12T03:24:55.773Z,101079.72
2018-07-12T03:27:22.977Z,101082.05
2018-07-12T03:29:50.200Z,101077.09
2018-07-12T03:32:17.459Z,101075.48
2018-07-12T03:34:44.699Z,101082.47
2018-07-12T03:37:11.927Z,101077.51
2018-07-12T03:39:39.171Z,101076.69
2018-07-12T03:42:06.423Z,101080.48
2018-07-12T03:44:33.678Z,101080.80
2018-07-12T03:47:00.896Z,101079.43
2018-07-12T03:49:28.355Z,101078.58
2018-07-12T03:51:55.593Z,101077.25
2018-07-12T03:54:22.836Z,101075.57
2018-07-12T03:56:50.038Z,101072.28
2018-07-12T03:59:17.284Z,101077.09
2018-07-12T04:01:44.519Z,101082.38
2018-07-12T04:04:11.719Z,101080.18
2018-07-12T04:06:38.939Z,101084.01
2018-07-12T04:09:06.639Z,101087.14
2018-07-12T04:11:33.860Z,101096.40
2018-07-12T04:14:01.096Z,101096.05
2018-07-12T04:16:28.372Z,101093.35
2018-07-12T04:18:55.631Z,101094.52
2018-07-12T04:21:22.829Z,101096.67
2018-07-12T04:23:50.078Z,101101.13
2018-07-12T04:26:17.289Z,101102.61
2018-07-12T04:28:44.507Z,101100.77
2018-07-12T04:31:12.053Z,101107.45
2018-07-12T04:33:39.284Z,101112.43
2018-07-12T04:36:06.510Z,101111.76
2018-07-12T04:38:33.737Z,101113.36
2018-07-12T04:41:00.946Z,101113.83
2018-07-12T04:43:28.148Z,101112.03
2018-07-12T04:45:55.377Z,101119.14
2018-07-12T04:48:22.582Z,101118.45
2018-07-12T04:50:49.800Z,101116.61
2018-07-12T04:53:17.027Z,101116.95
2018-07-12T04:55:44.241Z,101115.58
2018-07-12T04:58:11.535Z,101132.16
2018-07-12T05:00:38.674Z,101118.98
2018-07-12T05:03:05.892Z,101112.63
2018-07-12T05:05:33.225Z,101114.73
2018-07-12T05:08:00.489Z,101118.06
2018-07-12T05:10:27.720Z,101123.52
2018-07-12T05:12:54.925Z,101126.80
2018-07-12T05:15:22.152Z,101126.13
2018-07-12T05:20:22.901Z,101135.86
2018-07-12T05:22:50.122Z,101134.12
2018-07-12T05:25:17.347Z,101134.36
2018-07-12T05:27:44.577Z,101136.45
2018-07-12T05:30:11.773Z,101136.25
2018-07-12T05:32:39.005Z,101139.16
2018-07-12T05:35:06.216Z,101140.75
2018-07-12T05:37:34.569Z,101139.48
2018-07-12T05:40:02.973Z,101149.14
2018-07-12T05:42:31.277Z,101147.73
2018-07-12T05:44:59.616Z,101145.48
2018-07-12T05:47:28.040Z,101145.85
2018-07-12T05:49:56.386Z,101148.05
2018-07-12T05:52:24.745Z,101151.54
2018-07-12T05:54:53.060Z,101152.73
2018-07-12T05:57:40.125Z,101153.89
2018-07-12T06:00:08.617Z,101153.44
2018-07-12T06:02:37.468Z,101153.44
2018-07-12T06:05:05.931Z,101152.32
2018-07-12T06:07:34.281Z,101151.81
2018-07-12T06:10:02.626Z,101156.05
2018-07-12T06:12:30.979Z,101160.51
2018-07-12T06:14:59.335Z,101162.86
2018-07-12T06:17:27.715Z,101169.86
2018-07-12T06:19:56.172Z,101170.17
2018-07-12T06:22:24.581Z,101166.30
2018-07-12T06:24:52.997Z,101168.34
2018-07-12T06:27:21.384Z,101172.24
2018-07-12T06:29:49.805Z,101173.50
2018-07-12T06:32:18.149Z,101175.55
2018-07-12T06:34:46.511Z,101181.89
2018-07-12T06:37:14.913Z,101186.60
2018-07-12T06:39:43.386Z,101188.81
2018-07-12T06:42:11.769Z,101192.31
2018-07-12T06:44:40.105Z,101196.49
2018-07-12T06:47:08.404Z,101194.15
2018-07-12T06:49:36.757Z,101189.05
2018-07-12T06:52:05.133Z,101197.41
2018-07-12T06:54:33.488Z,101194.92
2018-07-12T06:57:01.850Z,101190.96
2018-07-12T06:59:30.183Z,101190.35
2018-07-12T07:01:58.542Z,101192.55
2018-07-12T07:04:26.866Z,101193.09
2018-07-12T07:06:55.392Z,101188.22
2018-07-12T07:09:23.727Z,101187.70
2018-07-12T07:11:52.117Z,101187.92
2018-07-12T07:14:20.461Z,101190.73
2018-07-12T07:16:48.825Z,101199.19
2018-07-12T07:19:17.165Z,101199.09
2018-07-12T07:21:45.529Z,101200.89
2018-07-12T07:24:13.882Z,101203.16
2018-07-12T07:26:43.141Z,101200.31
2018-07-12T07:29:11.489Z,101207.61
2018-07-12T07:31:39.817Z,101207.20
2018-07-12T07:34:08.219Z,101217.72
2018-07-12T07:36:36.565Z,101221.73
2018-07-12T07:39:07.052Z,101220.98
2018-07-12T07:41:35.361Z,101227.09
2018-07-12T07:44:04.183Z,101228.02
2018-07-12T07:46:32.520Z,101229.77
2018-07-12T07:49:00.854Z,101220.17
2018-07-12T07:51:29.233Z,101228.20
2018-07-12T07:53:57.602Z,101227.78
2018-07-12T07:56:26.005Z,101225.29
2018-07-12T07:58:54.339Z,101227.46
2018-07-12T08:01:22.837Z,101226.33
2018-07-12T08:03:51.190Z,101231.19
2018-07-12T08:06:19.555Z,101224.70
2018-07-12T08:08:47.905Z,101226.73
2018-07-12T08:11:16.267Z,101227.88
2018-07-12T08:13:44.660Z,101224.88
2018-07-12T08:16:13.067Z,101227.98
2018-07-12T08:18:41.445Z,101223.26
2018-07-12T08:21:12.624Z,101225.34
2018-07-12T08:23:41.257Z,101223.08
2018-07-12T08:26:09.801Z,101223.14
2018-07-12T08:28:38.167Z,101224.30
2018-07-12T08:31:06.520Z,101228.70
2018-07-12T08:33:34.885Z,101226.18
2018-07-12T08:36:03.259Z,101224.86
2018-07-12T08:38:31.632Z,101224.45
2018-07-12T08:41:00.099Z,101224.47
2018-07-12T08:43:28.933Z,101223.14
2018-07-12T08:45:57.270Z,101218.61
2018-07-12T08:48:25.644Z,101221.80
2018-07-12T08:50:53.966Z,101221.52
2018-07-12T08:53:22.286Z,101226.23
2018-07-12T08:55:50.605Z,101228.25
2018-07-12T08:58:18.989Z,101224.64
2018-07-12T09:00:47.561Z,101228.25
2018-07-12T09:03:15.933Z,101223.41
2018-07-12T09:05:44.363Z,101223.95
2018-07-12T09:08:12.680Z,101219.70
2018-07-12T09:10:41.001Z,101222.86
2018-07-12T09:13:09.372Z,101227.31
2018-07-12T09:15:37.772Z,101224.16
2018-07-12T09:18:06.202Z,101228.21
2018-07-12T09:20:34.549Z,101226.11
2018-07-12T09:23:02.902Z,101229.52
2018-07-12T09:25:31.468Z,101223.17
2018-07-12T09:27:59.815Z,101218.33
2018-07-12T09:30:28.108Z,101231.81
2018-07-12T09:32:56.435Z,101232.45
2018-07-12T09:35:24.761Z,101231.73
2018-07-12T09:37:53.113Z,101230.83
2018-07-12T09:40:21.469Z,101231.94
2018-07-12T09:42:49.810Z,101234.45
2018-07-12T09:45:18.166Z,101240.30
2018-07-12T09:47:46.483Z,101235.66
2018-07-12T09:50:14.871Z,101241.17
2018-07-12T09:52:43.229Z,101233.05
2018-07-12T09:55:11.558Z,101240.71
2018-07-12T09:57:51.208Z,101238.84
2018-07-12T10:00:23.694Z,101233.59
2018-07-12T10:03:30.691Z,101241.23
2018-07-12T10:05:59.930Z,101236.16
2018-07-12T10:08:33.536Z,101243.19
2018-07-12T10:11:08.066Z,101233.74
2018-07-12T10:13:41.743Z,101233.91
2018-07-12T10:16:15.453Z,101238.67
2018-07-12T10:18:43.896Z,101239.28
2018-07-12T10:21:12.305Z,101234.83
2018-07-12T10:23:47.348Z,101233.27
2018-07-12T10:26:15.689Z,101237.08
2018-07-12T10:28:44.330Z,101231.34
2018-07-12T10:31:12.692Z,101232.15
2018-07-12T10:33:41.036Z,101234.02
2018-07-12T10:36:09.387Z,101238.66
2018-07-12T10:38:37.721Z,101238.88
2018-07-12T10:41:06.101Z,101228.16
2018-07-12T10:43:34.437Z,101227.98
2018-07-12T10:46:02.790Z,101235.52
2018-07-12T10:48:31.124Z,101235.25
2018-07-12T10:50:59.451Z,101234.99
2018-07-12T10:53:27.762Z,101238.61
2018-07-12T10:55:56.082Z,101234.13
2018-07-12T10:58:24.515Z,101229.72
2018-07-12T11:00:52.897Z,101228.30
2018-07-12T11:03:21.253Z,101231.63
2018-07-12T11:05:49.636Z,101223.22
2018-07-12T11:08:18.081Z,101228.53
2018-07-12T11:10:46.428Z,101224.48
2018-07-12T11:13:17.476Z,101221.40
2018-07-12T11:15:46.625Z,101218.95
2018-07-12T11:18:14.980Z,101221.03
2018-07-12T11:20:43.324Z,101219.10
2018-07-12T11:23:11.667Z,101218.39
2018-07-12T11:25:39.974Z,101226.08
2018-07-12T11:28:08.380Z,101228.12
2018-07-12T11:30:36.663Z,101215.53
2018-07-12T11:33:32.129Z,101214.20
2018-07-12T11:36:00.507Z,101205.25
2018-07-12T11:38:28.835Z,101208.42
2018-07-12T11:40:57.253Z,101207.41
2018-07-12T11:43:25.588Z,101212.87
2018-07-12T11:45:53.959Z,101219.47
2018-07-12T11:48:22.575Z,101218.48
2018-07-12T11:50:51.182Z,101210.31
2018-07-12T11:53:19.541Z,101206.72
2018-07-12T11:55:48.074Z,101210.86
2018-07-12T11:58:16.422Z,101203.63
2018-07-12T12:00:44.870Z,101211.92
2018-07-12T12:03:13.213Z,101206.87
2018-07-12T12:05:41.793Z,101205.09
2018-07-12T12:08:10.120Z,101204.84
2018-07-12T12:10:38.511Z,101208.53
2018-07-12T12:13:06.842Z,101205.16
2018-07-12T12:15:35.160Z,101201.30
2018-07-12T12:18:03.542Z,101199.59
2018-07-12T12:20:31.841Z,101191.33
2018-07-12T12:23:00.133Z,101195.48
2018-07-12T12:25:28.453Z,101198.53
2018-07-12T12:27:57.223Z,101196.05
2018-07-12T12:30:25.744Z,101184.25
2018-07-12T12:32:54.100Z,101189.17
2018-07-12T12:35:22.437Z,101182.93
2018-07-12T12:37:50.782Z,101179.66
2018-07-12T12:40:19.108Z,101178.53
2018-07-12T12:42:47.491Z,101183.11
2018-07-12T12:45:15.810Z,101184.17
2018-07-12T12:47:44.129Z,101176.42
2018-07-12T12:50:12.456Z,101183.20
2018-07-12T12:52:40.806Z,101177.78
2018-07-12T12:55:09.122Z,101172.56
2018-07-12T12:57:37.669Z,101177.47
2018-07-12T13:00:06.905Z,101173.55
2018-07-12T13:02:35.299Z,101167.34
2018-07-12T13:05:03.999Z,101167.79
2018-07-12T13:07:32.345Z,101163.41
2018-07-12T13:10:00.731Z,101162.40
2018-07-12T13:12:29.069Z,101162.54
2018-07-12T13:14:57.368Z,101165.87
2018-07-12T13:17:25.744Z,101161.41
2018-07-12T13:19:54.081Z,101155.33
2018-07-12T13:22:22.433Z,101153.39
2018-07-12T13:24:50.802Z,101160.95
2018-07-12T13:27:19.223Z,101167.53
2018-07-12T13:29:47.568Z,101155.80
2018-07-12T13:32:16.078Z,101156.57
2018-07-12T13:34:44.438Z,101155.03
2018-07-12T13:37:12.794Z,101164.56
2018-07-12T13:39:41.111Z,101169.50
2018-07-12T13:42:09.412Z,101161.88
2018-07-12T13:44:37.741Z,101161.34
2018-07-12T13:47:06.208Z,101159.14
2018-07-12T13:49:34.527Z,101159.48
2018-07-12T13:52:02.892Z,101161.25
2018-07-12T13:54:31.226Z,101160.14
2018-07-12T13:56:59.597Z,101160.08
2018-07-12T13:59:27.914Z,101153.34
2018-07-12T14:01:56.242Z,101154.97
2018-07-12T14:04:24.564Z,101151.58
2018-07-12T14:06:52.991Z,101151.86
2018-07-12T14:09:21.359Z,101156.33
2018-07-12T14:11:49.657Z,101157.48
2018-07-12T14:14:17.995Z,101154.05
2018-07-12T14:16:46.332Z,101152.86
2018-07-12T14:19:14.711Z,101154.93
2018-07-12T14:21:43.043Z,101148.31
2018-07-12T14:24:11.393Z,101140.51
2018-07-12T14:26:39.696Z,101144.36
2018-07-12T14:29:08.020Z,101143.35
2018-07-12T14:31:36.341Z,101139.52
2018-07-12T14:34:04.719Z,101136.90
2018-07-12T14:36:33.059Z,101142.08
2018-07-12T14:39:01.421Z,101140.72
2018-07-12T14:41:29.791Z,101142.94
2018-07-12T14:43:58.111Z,101149.88
2018-07-12T14:46:26.496Z,101147.50
2018-07-12T14:48:54.801Z,101144.83
2018-07-12T14:51:23.208Z,101138.97
2018-07-12T14:53:51.512Z,101133.48
2018-07-12T14:56:19.817Z,101139.69
2018-07-12T14:58:48.289Z,101135.23
2018-07-12T15:01:16.608Z,101136.27
2018-07-12T15:03:44.934Z,101134.11
2018-07-12T15:06:13.228Z,101136.52
2018-07-12T15:08:41.631Z,101134.83
2018-07-12T15:11:09.968Z,101138.80
2018-07-12T15:13:38.286Z,101145.98
2018-07-12T15:16:06.641Z,101140.17
2018-07-12T15:18:34.992Z,101139.94
2018-07-12T15:21:03.340Z,101134.81
2018-07-12T15:23:31.705Z,101130.77
2018-07-12T15:26:00.131Z,101132.58
2018-07-12T15:28:28.499Z,101130.34
2018-07-12T15:30:56.800Z,101132.69
2018-07-12T15:33:25.172Z,101138.48
2018-07-12T15:35:53.657Z,101138.17
2018-07-12T15:38:22.019Z,101133.48
2018-07-12T15:40:50.383Z,101138.59
2018-07-12T15:43:18.788Z,101141.84
2018-07-12T15:45:47.121Z,101138.41
2018-07-12T15:48:15.475Z,101140.00
2018-07-12T15:50:43.849Z,101136.92
2018-07-12T15:53:12.239Z,101130.58
2018-07-12T15:55:40.562Z,101125.23
2018-07-12T15:58:08.894Z,101135.23
2018-07-12T16:00:37.249Z,101134.73
2018-07-12T16:03:05.615Z,101137.88
2018-07-12T16:05:33.964Z,101137.48
2018-07-12T16:08:02.275Z,101129.91
2018-07-12T16:10:30.736Z,101130.19
2018-07-12T16:12:59.056Z,101123.88
2018-07-12T16:15:27.453Z,101124.56
2018-07-12T16:17:55.824Z,101121.11
2018-07-12T16:20:24.137Z,101117.08
2018-07-12T16:22:52.540Z,101123.57
2018-07-12T16:25:20.994Z,101122.52
2018-07-12T16:27:49.403Z,101122.80
2018-07-12T16:30:17.691Z,101123.68
2018-07-12T16:32:46.026Z,101130.87
2018-07-12T16:35:14.351Z,101127.12
2018-07-12T16:37:42.697Z,101124.42
2018-07-12T16:40:11.046Z,101130.72
2018-07-12T16:42:39.379Z,101127.77
2018-07-12T16:45:07.909Z,101142.30
2018-07-12T16:47:36.212Z,101142.80
2018-07-12T16:50:04.679Z,101146.61
2018-07-12T16:52:33.006Z,101149.95
2018-07-12T16:55:01.276Z,101152.44
2018-07-12T16:57:29.704Z,101156.04
2018-07-12T16:59:58.045Z,101156.27
2018-07-12T17:02:26.396Z,101160.87
2018-07-12T17:04:54.712Z,101163.53
2018-07-12T17:07:23.083Z,101176.05
2018-07-12T17:09:51.432Z,101183.20
2018-07-12T17:12:19.788Z,101199.92
2018-07-12T17:14:48.118Z,101203.47
2018-07-12T17:17:16.492Z,101197.20
2018-07-12T17:19:44.944Z,101197.14
2018-07-12T17:22:13.325Z,101203.67
2018-07-12T17:24:41.679Z,101205.55
2018-07-12T17:27:10.014Z,101207.46
2018-07-12T17:29:38.409Z,101214.08
2018-07-12T17:32:06.724Z,101215.31
2018-07-12T17:34:35.081Z,101217.38
2018-07-12T17:37:03.424Z,101215.52
2018-07-12T17:39:31.752Z,101210.50
2018-07-12T17:42:00.081Z,101202.06
2018-07-12T17:44:28.415Z,101215.75
2018-07-12T17:46:56.874Z,101213.18
2018-07-12T17:49:25.268Z,101216.56
2018-07-12T17:51:53.848Z,101218.83
2018-07-12T17:54:22.188Z,101222.44
2018-07-12T17:56:50.880Z,101229.95
2018-07-12T17:59:19.170Z,101227.48
2018-07-12T18:01:47.482Z,101232.63
2018-07-12T18:04:15.850Z,101228.61
2018-07-12T18:06:44.192Z,101227.09
2018-07-12T18:09:12.525Z,101231.41
2018-07-12T18:11:41.101Z,101225.34
2018-07-12T18:14:09.456Z,101217.39
2018-07-12T18:16:37.872Z,101221.81
2018-07-12T18:19:06.292Z,101227.09
2018-07-12T18:21:34.600Z,101228.02
2018-07-12T18:24:02.942Z,101226.76
2018-07-12T18:26:31.252Z,101228.20
2018-07-12T18:28:59.631Z,101239.73
2018-07-12T18:31:27.956Z,101232.10
2018-07-12T18:33:56.369Z,101230.75
2018-07-12T18:36:24.785Z,101229.63
2018-07-12T18:38:53.133Z,101235.59
2018-07-12T18:41:21.527Z,101242.24
2018-07-12T18:43:50.094Z,101235.95
2018-07-12T18:46:18.433Z,101244.69
2018-07-12T18:48:46.755Z,101250.13
2018-07-12T18:51:15.091Z,101249.83
2018-07-12T18:53:43.401Z,101247.34
2018-07-12T18:56:11.811Z,101250.41
2018-07-12T18:58:40.169Z,101254.64
2018-07-12T19:01:08.531Z,101262.67
2018-07-12T19:03:36.829Z,101262.67
2018-07-12T19:06:05.188Z,101262.37
2018-07-12T19:08:33.539Z,101262.67
2018-07-12T19:11:01.928Z,101265.34
2018-07-12T19:13:30.305Z,101268.96
2018-07-12T19:15:58.663Z,101263.09
2018-07-12T19:18:26.989Z,101265.77
2018-07-12T19:20:55.365Z,101265.55
2018-07-12T19:23:23.787Z,101261.75
2018-07-12T19:25:52.117Z,101259.90
2018-07-12T19:28:20.500Z,101261.23
2018-07-12T19:30:48.862Z,101257.74
2018-07-12T19:33:17.290Z,101256.50
2018-07-12T19:35:45.625Z,101251.55
2018-07-12T19:38:13.959Z,101252.77
2018-07-12T19:40:42.323Z,101253.06
2018-07-12T19:43:10.634Z,101257.72
2018-07-12T19:45:38.966Z,101262.44
2018-07-12T19:48:07.302Z,101263.05
2018-07-12T19:50:35.637Z,101274.96
2018-07-12T19:53:04.017Z,101281.22
2018-07-12T19:55:32.352Z,101288.64
2018-07-12T19:58:00.693Z,101292.23
2018-07-12T20:00:29.006Z,101296.94
2018-07-12T20:02:57.361Z,101308.97
2018-07-12T20:05:25.681Z,101312.98
2018-07-12T20:07:53.966Z,101313.16
2018-07-12T20:10:22.296Z,101314.32
2018-07-12T20:12:53.541Z,101316.78
2018-07-12T20:15:21.903Z,101315.27
2018-07-12T20:17:50.244Z,101316.72
2018-07-12T20:20:18.658Z,101307.67
2018-07-12T20:22:46.999Z,101313.14
2018-07-12T20:25:15.337Z,101314.35
2018-07-12T20:27:43.635Z,101313.41
2018-07-12T20:30:12.037Z,101314.95
2018-07-12T20:32:40.747Z,101314.11
2018-07-12T20:35:09.063Z,101312.28
2018-07-12T20:37:37.476Z,101308.19
2018-07-12T20:40:05.821Z,101310.34
2018-07-12T20:42:34.141Z,101311.25
2018-07-12T20:45:02.627Z,101308.45
2018-07-12T20:47:31.003Z,101314.50
2018-07-12T20:49:59.588Z,101323.25
2018-07-12T20:52:27.942Z,101312.86
2018-07-12T20:54:59.424Z,101314.32
2018-07-12T20:57:27.814Z,101315.14
2018-07-12T20:59:56.169Z,101312.55
2018-07-12T21:02:24.506Z,101315.63
2018-07-12T21:04:52.890Z,101307.98
2018-07-12T21:07:21.259Z,101315.06
2018-07-12T21:09:49.569Z,101313.81
2018-07-12T21:12:18.434Z,101314.90
2018-07-12T21:14:46.808Z,101319.20
2018-07-12T21:17:15.252Z,101327.31
2018-07-12T21:19:43.601Z,101320.16
2018-07-12T21:22:11.897Z,101319.73
2018-07-12T21:24:40.245Z,101317.70
2018-07-12T21:27:08.550Z,101321.70
2018-07-12T21:29:36.889Z,101324.08
2018-07-12T21:32:05.255Z,101323.43
2018-07-12T21:34:33.614Z,101321.79
2018-07-12T21:37:01.967Z,101326.83
2018-07-12T21:39:30.263Z,101332.66
2018-07-12T21:41:58.670Z,101336.19
2018-07-12T21:44:27.075Z,101336.80
2018-07-12T21:46:55.397Z,101338.34
2018-07-12T21:49:23.739Z,101342.66
2018-07-12T21:51:52.608Z,101339.67
2018-07-12T21:54:20.954Z,101343.69
2018-07-12T21:56:49.282Z,101340.67
2018-07-12T21:59:17.613Z,101339.86
2018-07-12T22:01:45.916Z,101340.34
2018-07-12T22:04:14.260Z,101339.86
2018-07-12T22:08:51.351Z,101338.87
2018-07-12T22:11:19.686Z,101329.37
2018-07-12T22:13:48.039Z,101334.14
2018-07-12T22:16:16.627Z,101337.38
2018-07-12T22:18:44.944Z,101337.32
2018-07-12T22:21:13.284Z,101346.61
2018-07-12T22:23:41.616Z,101343.19
2018-07-12T22:26:09.919Z,101338.61
2018-07-12T22:28:38.280Z,101339.78
2018-07-12T22:31:06.623Z,101335.06
2018-07-12T22:33:34.932Z,101335.81
2018-07-12T22:36:03.280Z,101333.38
2018-07-12T22:38:31.623Z,101331.81
2018-07-12T22:40:59.970Z,101334.54
2018-07-12T22:43:28.352Z,101337.59
2018-07-12T22:45:56.643Z,101337.28
2018-07-12T22:48:25.187Z,101337.79
2018-07-12T22:50:53.318Z,101342.67
2018-07-12T22:53:21.678Z,101337.91
2018-07-12T22:55:50.034Z,101342.29
2018-07-12T22:58:18.383Z,101343.48
2018-07-12T23:00:46.974Z,101341.53
2018-07-12T23:03:15.327Z,101335.09
2018-07-12T23:05:43.663Z,101339.27
2018-07-12T23:08:12.031Z,101338.30
2018-07-12T23:10:40.346Z,101340.48
2018-07-12T23:13:08.757Z,101345.98
2018-07-12T23:15:37.102Z,101341.67
2018-07-12T23:18:05.714Z,101346.36
2018-07-12T23:20:34.089Z,101354.25
2018-07-12T23:23:02.464Z,101352.31
2018-07-12T23:25:30.814Z,101346.55
2018-07-12T23:27:59.165Z,101348.30
2018-07-12T23:30:27.519Z,101340.05
2018-07-12T23:32:55.967Z,101339.25
2018-07-12T23:35:24.333Z,101344.47
2018-07-12T23:37:53.041Z,101345.34
2018-07-12T23:40:21.447Z,101353.70
2018-07-12T23:42:49.777Z,101350.06
2018-07-12T23:45:18.111Z,101354.73
2018-07-12T23:47:46.410Z,101350.11
2018-07-12T23:50:14.819Z,101350.28
2018-07-12T23:52:43.189Z,101350.12
2018-07-12T23:55:11.537Z,101352.68
2018-07-12T23:57:39.885Z,101355.87
